Nearby METAR Reports

 

KSNK - Snyder/Winston, Texas, USA
Distance from station: SSE 25mi, 41km
Updated: Mon, 17-May-2021 4:19pm CDT
Mostly cloudy
Mostly cloudy
 Wind from SE
Wind: SE 12 mph , 19 km/h, Gust: 17 mph , 28 km/h
Temperature: 82°F , 28°C
Heat Index: 83°F , 28°C
Dew Point: 63°F , 17°C
Humidity: 51%
Barometer: 29.83 inHg , 1010.2 hPa
Clouds: Mostly cloudy
Visibility: 10 miles , 16 km
Cloud details: Partly cloudy 4300 ft
Partly cloudy 5000 ft
Mostly cloudy 7000 ft
2021/05/17 21:19 KSNK 172119Z AUTO 14010G15KT 10SM SCT043 SCT050 BKN070 28/17 A2983 RMK AO2 LTG DSNT N
KSWW - Sweetwater, Texas, USA
Distance from station: SE 56mi, 90km
Updated: Mon, 17-May-2021 4:15pm CDT
Mostly cloudy
Mostly cloudy
 Wind from SSE
Wind: SSE 15 mph , 24 km/h, Gust: 18 mph , 30 km/h
Temperature: 82°F , 28°C
Heat Index: 83°F , 28°C
Dew Point: 63°F , 17°C
Humidity: 51%
Barometer: 29.85 inHg , 1010.8 hPa
Clouds: Mostly cloudy
Visibility: 10 miles , 16 km
Cloud details: Partly cloudy 4700 ft
Mostly cloudy 5000 ft
Mostly cloudy 7500 ft
2021/05/17 21:15 KSWW 172115Z AUTO 15013G16KT 10SM SCT047 BKN050 BKN075 28/17 A2985 RMK AO2 LTG DSNT NW T02840172
 
KLBB - Lubbock, Texas, USA
Distance from station: NW 59mi, 94km
Updated: Mon, 17-May-2021 3:53pm CDT
Mostly cloudy
Mostly cloudy
 Wind from ESE
Wind: ESE 16 mph , 26 km/h, Gust: 23 mph , 37 km/h
Temperature: 79°F , 26°C
Dew Point: 57°F , 14°C
Humidity: 48%
Barometer: 29.87 inHg , 1011.5 hPa
Clouds: Mostly cloudy
Visibility: 10 miles , 16 km
Cloud details: Mostly cloudy 4000 ft
Mostly cloudy 5000 ft
2021/05/17 20:53 KLBB 172053Z 12014G20KT 10SM BKN040 BKN050 26/14 A2987 RMK AO2 SLP071 T02560139 58017
KPVW - Plainview, Texas, USA
Distance from station: NNW 85mi, 137km
Updated: Mon, 17-May-2021 4:15pm CDT
Overcast
Overcast
 Wind from SE
Wind: SE 13 mph , 20 km/h
Temperature: 73°F , 23°C
Dew Point: 55°F , 13°C
Humidity: 53%
Barometer: 29.88 inHg , 1011.9 hPa
Clouds: Overcast
Visibility: 10 miles , 16 km
Cloud details: Overcast 4600 ft
2021/05/17 21:15 KPVW 172115Z AUTO 14011KT 10SM OVC046 23/13 A2988 RMK AO2 T02280129
 
KDYS - Dyess Afb/Abilen, Texas, USA
Distance from station: ESE 88mi, 141km
Updated: Mon, 17-May-2021 3:56pm CDT
Few Clouds
Few Clouds
 Wind from SSE
Wind: SSE 16 mph , 26 km/h
Temperature: 82°F , 28°C
Heat Index: 82°F , 28°C
Dew Point: 59°F , 15°C
Humidity: 45%
Barometer: 29.82 inHg , 1009.8 hPa
Clouds: Few Clouds
Visibility: 10 miles , 16 km
Cloud details: Few Clouds 17000 ft
2021/05/17 20:56 KDYS 172056Z AUTO 15014KT 10SM FEW170 28/15 A2982 RMK AO2 SLP062 T02830149 57013
KGNC - Seminole, Texas, USA
Distance from station: WSW 89mi, 144km
Updated: Mon, 17-May-2021 4:15pm CDT
Clear
Clear
 Wind from ESE
Wind: ESE 10 mph , 17 km/h
Temperature: 82°F , 28°C
Heat Index: 81°F , 27°C
Dew Point: 55°F , 13°C
Humidity: 40%
Barometer: 29.85 inHg , 1010.8 hPa
Clouds: Clear
Visibility: 10 miles , 16 km
2021/05/17 21:15 KGNC 172115Z AUTO 11009KT 10SM CLR 28/13 A2985 RMK AO2 T02820127
 
KE11 - Andrews, Texas, USA
Distance from station: WSW 93mi, 149km
Updated: Mon, 17-May-2021 4:15pm CDT
Clear
Clear
 Wind from calm
Wind: Calm
Temperature: 86°F , 30°C
Dew Point: 54°F , 12°C
Humidity: 33%
Barometer: 29.81 inHg , 1009.5 hPa
Clouds: Clear
Visibility: 10 miles , 16 km
2021/05/17 21:15 KE11 172115Z AUTO 00000KT 10SM CLR 30/12 A2981 RMK AO2 T02960120
KABI - Abilene, Texas, USA
Distance from station: ESE 96mi, 154km
Updated: Mon, 17-May-2021 3:52pm CDT
Clear
Clear
 Wind from SSE
Wind: SSE 14 mph , 22 km/h, Gust: 24 mph , 39 km/h
Temperature: 84°F , 29°C
Heat Index: 84°F , 29°C
Dew Point: 61°F , 16°C
Humidity: 45%
Barometer: 29.82 inHg , 1009.8 hPa
Clouds: Clear
Visibility: 10 miles , 16 km
2021/05/17 20:52 KABI 172052Z 15012G21KT 10SM CLR 29/16 A2982 RMK AO2 SLP074 T02940156 58013
 
KMAF - Midland, Texas, USA
Distance from station: SW 96mi, 154km
Updated: Mon, 17-May-2021 3:53pm CDT
Overcast
Overcast
 Wind from varies
Wind: varies 6 mph , 9 km/h
Temperature: 84°F , 29°C
Heat Index: 84°F , 29°C
Dew Point: 61°F , 16°C
Humidity: 45%
Barometer: 29.78 inHg , 1008.5 hPa
Clouds: Overcast
Visibility: 10 miles , 16 km
Cloud details: Mostly cloudy 5000 ft
Overcast 6000 ft
2021/05/17 20:53 KMAF 172053Z VRB05KT 10SM BKN050 OVC060 29/16 A2978 RMK AO2 SLP036 T02940156 58027
KCDS - Childress, Texas, USA
Distance from station: NNE 110mi, 177km
Updated: Mon, 17-May-2021 3:53pm CDT
Mostly cloudy
Mostly cloudy
 Wind from varies
Wind: varies 6 mph , 9 km/h
Temperature: 82°F , 28°C
Heat Index: 82°F , 28°C
Dew Point: 57°F , 14°C
Humidity: 42%
Barometer: 29.85 inHg , 1010.8 hPa
Clouds: Mostly cloudy
Visibility: 10 miles , 16 km
Cloud details: Mostly cloudy 8000 ft
2021/05/17 20:53 KCDS 172053Z AUTO VRB05KT 10SM BKN080 28/14 A2985 RMK AO2 SLP085 T02830139 56015
 
KSJT - San Angelo, Texas, USA
Distance from station: SSE 121mi, 194km
Updated: Mon, 17-May-2021 3:51pm CDT
Partly cloudy
Partly cloudy
 Wind from SSE
Wind: SSE 12 mph , 19 km/h, Gust: 26 mph , 43 km/h
Temperature: 86°F , 30°C
Heat Index: 88°F , 31°C
Dew Point: 64°F , 18°C
Humidity: 49%
Barometer: 29.79 inHg , 1008.8 hPa
Clouds: Partly cloudy
Visibility: 10 miles , 16 km
Cloud details: Partly cloudy 4500 ft
Partly cloudy 5500 ft
2021/05/17 20:51 KSJT 172051Z 15010G23KT 10SM SCT045 SCT055 30/18 A2979 RMK AO2 PK WND 14027/2013 SLP060 T03000178 56024
KHOB - Hobbs/Lea Co., New Mexico, USA
Distance from station: WSW 122mi, 196km
Updated: Mon, 17-May-2021 3:50pm CDT
Partly cloudy
Partly cloudy
 Wind from SSE
Wind: SSE 7 mph , 11 km/h, Gust: 17 mph , 28 km/h
Temperature: 84°F , 29°C
Dew Point: 41°F , 5°C
Humidity: 22%
Barometer: 29.81 inHg , 1009.5 hPa
Clouds: Partly cloudy
Visibility: 10 miles , 16 km
Cloud details: Partly cloudy 9000 ft
Partly cloudy 12000 ft
2021/05/17 20:50 KHOB 172050Z 16006G15KT 10SM SCT090 SCT120 29/05 A2981
 
KCOM - Coleman Muni, Texas, USA
Distance from station: SE 131mi, 212km
Updated: Mon, 17-May-2021 4:15pm CDT
Clear
Clear
 Wind from SSE
Wind: SSE 8 mph , 13 km/h
Temperature: 82°F , 28°C
Heat Index: 83°F , 28°C
Dew Point: 63°F , 17°C
Humidity: 51%
Barometer: 29.83 inHg , 1010.2 hPa
Clouds: Clear
Visibility: 10 miles , 16 km
2021/05/17 21:15 KCOM 172115Z AUTO 15007KT 10SM CLR 28/17 A2983 RMK AO2 T02810170
KBKD - Breckenridge, Texas, USA
Distance from station: E 134mi, 215km
Updated: Mon, 17-May-2021 4:15pm CDT
Clear
Clear
 Wind from SE
Wind: SE 6 mph , 9 km/h
Temperature: 90°F , 32°C
Heat Index: 91°F , 33°C
Dew Point: 63°F , 17°C
Humidity: 41%
Barometer: 29.81 inHg , 1009.5 hPa
Clouds: Clear
Visibility: 7 miles , 11 km
2021/05/17 21:15 KBKD 172115Z AUTO 14005KT 7SM CLR 32/17 A2981 RMK AO2 T03200166
 
KF05 - Vernon Wilbarger, Texas, USA
Distance from station: NE 137mi, 220km
Updated: Mon, 17-May-2021 4:15pm CDT
Mostly cloudy
Mostly cloudy
 Wind from E
Wind: E 10 mph , 17 km/h, Gust: 16 mph , 26 km/h
Temperature: 82°F , 28°C
Heat Index: 82°F , 28°C
Dew Point: 61°F , 16°C
Humidity: 48%
Barometer: 29.84 inHg , 1010.5 hPa
Clouds: Mostly cloudy
Visibility: 10 miles , 16 km
Cloud details: Mostly cloudy 9500 ft
2021/05/17 21:15 KF05 172115Z AUTO 09009G14KT 10SM BKN095 28/16 A2984 RMK AO2 T02810164